Time,TemperatureF,DewpointF,PressureIn,WindDirection,WindDirectionDegrees,WindSpeedMPH,WindSpeedGustMPH,Humidity,HourlyPrecipIn,Conditions,Clouds,dailyrainin,SoftwareType,DateUTC
2013-09-15 00:04:00,56.1,50.0,29.56,ESE,111,0.0,0.0,80,0.00,,,0.00,Wunderground v.1.15,2013-09-15 07:04:00,
2013-09-15 00:14:00,55.8,50.1,29.56,ESE,111,0.0,0.0,81,0.00,,,0.00,Wunderground v.1.15,2013-09-15 07:14:00,
2013-09-15 00:19:00,55.6,49.5,29.56,ESE,111,0.0,0.0,80,0.00,,,0.00,Wunderground v.1.15,2013-09-15 07:19:00,
2013-09-15 00:25:00,55.4,49.7,29.56,ESE,112,0.0,0.0,81,0.00,,,0.00,Wunderground v.1.15,2013-09-15 07:25:00,
2013-09-15 00:35:00,55.1,49.4,29.56,ESE,111,0.0,0.0,81,0.00,,,0.00,Wunderground v.1.15,2013-09-15 07:35:00,
2013-09-15 00:40:00,54.9,49.2,29.56,ESE,111,0.0,0.0,81,0.00,,,0.00,Wunderground v.1.15,2013-09-15 07:40:00,
2013-09-15 00:50:00,54.6,49.2,29.57,ESE,111,0.0,0.0,82,0.00,,,0.00,Wunderground v.1.15,2013-09-15 07:50:00,
2013-09-15 00:59:00,54.3,49.2,29.56,ESE,111,0.0,0.0,83,0.00,,,0.00,Wunderground v.1.15,2013-09-15 07:59:00,
2013-09-15 01:05:00,54.1,49.1,29.56,ESE,112,0.0,0.0,83,0.00,,,0.00,Wunderground v.1.15,2013-09-15 08:05:00,
2013-09-15 01:15:00,53.8,48.8,29.56,ESE,111,0.0,0.0,83,0.00,,,0.00,Wunderground v.1.15,2013-09-15 08:15:00,
2013-09-15 01:25:00,53.5,48.5,29.57,ESE,111,0.0,0.0,83,0.00,,,0.00,Wunderground v.1.15,2013-09-15 08:25:00,
2013-09-15 01:34:00,53.2,48.5,29.56,ESE,111,0.0,0.0,84,0.00,,,0.00,Wunderground v.1.15,2013-09-15 08:34:00,
2013-09-15 01:45:00,52.9,48.2,29.56,ESE,111,0.0,0.0,84,0.00,,,0.00,Wunderground v.1.15,2013-09-15 08:45:00,
2013-09-15 01:54:00,52.7,48.3,29.56,ESE,111,0.0,0.0,85,0.00,,,0.00,Wunderground v.1.15,2013-09-15 08:54:00,
2013-09-15 02:05:00,52.5,48.1,29.56,ESE,111,0.0,0.0,85,0.00,,,0.00,Wunderground v.1.15,2013-09-15 09:05:00,
2013-09-15 02:14:00,52.3,47.9,29.57,ESE,111,0.0,0.0,85,0.00,,,0.00,Wunderground v.1.15,2013-09-15 09:14:00,
2013-09-15 02:24:00,52.1,48.0,29.57,ESE,111,0.0,0.0,86,0.00,,,0.00,Wunderground v.1.15,2013-09-15 09:24:00,
2013-09-15 02:34:00,51.9,47.8,29.58,ESE,111,0.0,0.0,86,0.00,,,0.00,Wunderground v.1.15,2013-09-15 09:34:00,
2013-09-15 02:44:00,51.7,47.6,29.57,ESE,111,0.0,0.0,86,0.00,,,0.00,Wunderground v.1.15,2013-09-15 09:44:00,
2013-09-15 02:54:00,51.8,48.1,29.57,ESE,111,0.0,0.0,87,0.00,,,0.00,Wunderground v.1.15,2013-09-15 09:54:00,
2013-09-15 03:04:00,52.0,48.6,29.57,ESE,111,0.0,0.0,88,0.00,,,0.00,Wunderground v.1.15,2013-09-15 10:04:00,
2013-09-15 03:14:00,52.3,49.2,29.57,ESE,111,0.0,0.0,89,0.00,,,0.00,Wunderground v.1.15,2013-09-15 10:14:00,
2013-09-15 03:24:00,52.4,49.3,29.57,ESE,111,0.0,0.0,89,0.00,,,0.00,Wunderground v.1.15,2013-09-15 10:24:00,
2013-09-15 03:34:00,52.3,48.9,29.57,ESE,111,0.0,0.0,88,0.00,,,0.00,Wunderground v.1.15,2013-09-15 10:34:00,
2013-09-15 03:44:00,51.9,48.2,29.57,ESE,111,0.0,0.0,87,0.00,,,0.00,Wunderground v.1.15,2013-09-15 10:44:00,
2013-09-15 03:54:00,51.6,47.9,29.57,ESE,111,0.0,0.0,87,0.00,,,0.00,Wunderground v.1.15,2013-09-15 10:54:00,
2013-09-15 03:59:00,51.5,47.8,29.57,ESE,111,0.0,0.0,87,0.00,,,0.00,Wunderground v.1.15,2013-09-15 10:59:00,
2013-09-15 04:04:00,51.4,47.7,29.57,ESE,111,0.0,0.0,87,0.00,,,0.00,Wunderground v.1.15,2013-09-15 11:04:00,
2013-09-15 04:14:00,51.5,48.1,29.57,ESE,111,0.0,0.0,88,0.00,,,0.00,Wunderground v.1.15,2013-09-15 11:14:00,
2013-09-15 04:19:00,51.5,48.1,29.57,ESE,111,0.0,0.0,88,0.00,,,0.00,Wunderground v.1.15,2013-09-15 11:19:00,
2013-09-15 04:29:00,51.4,48.0,29.58,ESE,111,0.0,0.0,88,0.00,,,0.00,Wunderground v.1.15,2013-09-15 11:29:00,
2013-09-15 04:39:00,51.0,47.3,29.58,ESE,111,0.0,0.0,87,0.00,,,0.00,Wunderground v.1.15,2013-09-15 11:39:00,
2013-09-15 04:49:00,50.6,46.9,29.58,ESE,111,0.0,0.0,87,0.00,,,0.00,Wunderground v.1.15,2013-09-15 11:49:00,
2013-09-15 04:59:00,50.3,46.6,29.58,ESE,111,0.0,0.0,87,0.00,,,0.00,Wunderground v.1.15,2013-09-15 11:59:00,
2013-09-15 05:04:00,50.1,46.1,29.58,ESE,111,0.0,0.0,86,0.00,,,0.00,Wunderground v.1.15,2013-09-15 12:04:00,
2013-09-15 05:14:00,49.7,46.0,29.59,ESE,111,0.0,0.0,87,0.00,,,0.00,Wunderground v.1.15,2013-09-15 12:14:00,
2013-09-15 05:24:00,49.4,45.7,29.59,ESE,111,0.0,0.0,87,0.00,,,0.00,Wunderground v.1.15,2013-09-15 12:24:00,
2013-09-15 05:34:00,49.2,45.5,29.59,ESE,111,0.0,0.0,87,0.00,,,0.00,Wunderground v.1.15,2013-09-15 12:34:00,
2013-09-15 05:44:00,49.0,45.3,29.59,ESE,111,0.0,0.0,87,0.00,,,0.00,Wunderground v.1.15,2013-09-15 12:44:00,
2013-09-15 05:54:00,48.9,45.5,29.59,ESE,112,0.0,0.0,88,0.00,,,0.00,Wunderground v.1.15,2013-09-15 12:54:00,
2013-09-15 06:04:00,48.9,46.7,29.59,ESE,112,0.0,0.0,92,0.00,,,0.00,Wunderground v.1.15,2013-09-15 13:04:00,
2013-09-15 06:14:00,48.9,45.5,29.60,ESE,112,0.0,0.0,88,0.00,,,0.00,Wunderground v.1.15,2013-09-15 13:14:00,
2013-09-15 06:30:00,48.3,44.9,29.59,ESE,112,0.0,0.0,88,0.00,,,0.00,Wunderground v.1.15,2013-09-15 13:30:00,
2013-09-15 06:40:00,48.0,44.3,29.60,ESE,112,0.0,0.0,87,0.00,,,0.00,Wunderground v.1.15,2013-09-15 13:40:00,
2013-09-15 06:50:00,47.7,44.0,29.60,ESE,112,0.0,0.0,87,0.00,,,0.00,Wunderground v.1.15,2013-09-15 13:50:00,
2013-09-15 07:00:00,47.5,43.8,29.60,ESE,112,0.0,0.0,87,0.00,,,0.00,Wunderground v.1.15,2013-09-15 14:00:00,
2013-09-15 07:05:00,47.4,43.7,29.60,ESE,112,0.0,0.0,87,0.00,,,0.00,Wunderground v.1.15,2013-09-15 14:05:00,
2013-09-15 07:15:00,47.2,43.8,29.60,ESE,112,0.0,0.0,88,0.00,,,0.00,Wunderground v.1.15,2013-09-15 14:15:00,
2013-09-15 07:24:00,47.3,43.9,29.61,ESE,112,0.0,0.0,88,0.00,,,0.00,Wunderground v.1.15,2013-09-15 14:24:00,
2013-09-15 07:35:00,47.7,44.6,29.61,ESE,112,0.0,0.0,89,0.00,,,0.00,Wunderground v.1.15,2013-09-15 14:35:00,
2013-09-15 07:44:00,48.1,45.3,29.61,ESE,112,0.0,0.0,90,0.00,,,0.00,Wunderground v.1.15,2013-09-15 14:44:00,
2013-09-15 07:55:00,49.2,46.7,29.62,ESE,112,0.0,0.0,91,0.00,,,0.00,Wunderground v.1.15,2013-09-15 14:55:00,
2013-09-15 08:05:00,50.2,47.7,29.62,ESE,112,0.0,0.0,91,0.00,,,0.00,Wunderground v.1.15,2013-09-15 15:05:00,
2013-09-15 08:14:00,50.8,48.3,29.62,ESE,112,0.0,0.0,91,0.00,,,0.00,Wunderground v.1.15,2013-09-15 15:14:00,
2013-09-15 08:19:00,51.5,49.0,29.62,ESE,112,0.0,0.0,91,0.00,,,0.00,Wunderground v.1.15,2013-09-15 15:19:00,
2013-09-15 08:29:00,52.6,50.0,29.62,ESE,112,0.0,0.0,91,0.00,,,0.00,Wunderground v.1.15,2013-09-15 15:29:00,
2013-09-15 08:39:00,53.3,50.4,29.63,ESE,112,0.0,0.0,90,0.00,,,0.00,Wunderground v.1.15,2013-09-15 15:39:00,
2013-09-15 08:49:00,54.3,51.1,29.63,ESE,112,0.0,0.0,89,0.00,,,0.00,Wunderground v.1.15,2013-09-15 15:49:00,
2013-09-15 08:59:00,55.6,51.8,29.63,ESE,112,0.0,0.0,87,0.00,,,0.00,Wunderground v.1.15,2013-09-15 15:59:00,
2013-09-15 09:04:00,56.2,52.1,29.63,ESE,112,0.0,0.0,86,0.00,,,0.00,Wunderground v.1.15,2013-09-15 16:04:00,
2013-09-15 09:14:00,57.7,52.6,29.63,ESE,112,0.0,0.0,83,0.00,,,0.00,Wunderground v.1.15,2013-09-15 16:14:00,
2013-09-15 09:19:00,58.6,52.8,29.63,ESE,112,0.0,1.0,81,0.00,,,0.00,Wunderground v.1.15,2013-09-15 16:19:00,
2013-09-15 09:29:00,60.5,54.0,29.63,ESE,112,0.0,0.0,79,0.00,,,0.00,Wunderground v.1.15,2013-09-15 16:29:00,
2013-09-15 09:39:00,61.6,54.3,29.64,ESE,112,0.0,0.0,77,0.00,,,0.00,Wunderground v.1.15,2013-09-15 16:39:00,
2013-09-15 09:44:00,62.1,54.4,29.63,ESE,112,0.0,0.0,76,0.00,,,0.00,Wunderground v.1.15,2013-09-15 16:44:00,
2013-09-15 09:54:00,63.5,54.7,29.64,ESE,112,0.0,0.0,73,0.00,,,0.00,Wunderground v.1.15,2013-09-15 16:54:00,
2013-09-15 10:04:00,65.7,54.4,29.64,North,5,0.0,0.0,67,0.00,,,0.00,Wunderground v.1.15,2013-09-15 17:04:00,
2013-09-15 10:14:00,67.3,55.1,29.64,North,5,0.0,0.0,65,0.00,,,0.00,Wunderground v.1.15,2013-09-15 17:14:00,
2013-09-15 10:24:00,69.0,55.4,29.64,NE,46,0.0,0.0,62,0.00,,,0.00,Wunderground v.1.15,2013-09-15 17:24:00,
2013-09-15 10:34:00,70.6,55.1,29.64,NE,45,0.0,0.0,58,0.00,,,0.00,Wunderground v.1.15,2013-09-15 17:34:00,
2013-09-15 10:44:00,71.7,55.7,29.64,ENE,70,0.0,0.0,57,0.00,,,0.00,Wunderground v.1.15,2013-09-15 17:44:00,
2013-09-15 10:54:00,73.1,55.5,29.64,ESE,108,0.0,1.0,54,0.00,,,0.00,Wunderground v.1.15,2013-09-15 17:54:00,
2013-09-15 11:04:00,74.7,56.4,29.64,NNE,17,0.0,0.0,53,0.00,,,0.00,Wunderground v.1.15,2013-09-15 18:04:00,
2013-09-15 11:14:00,76.0,56.6,29.64,ENE,68,0.0,0.0,51,0.00,,,0.00,Wunderground v.1.15,2013-09-15 18:14:00,
2013-09-15 11:25:00,77.4,55.6,29.63,NNE,15,1.0,2.0,47,0.00,,,0.00,Wunderground v.1.15,2013-09-15 18:25:00,
2013-09-15 11:35:00,78.3,56.4,29.63,NNW,346,0.0,1.0,47,0.00,,,0.00,Wunderground v.1.15,2013-09-15 18:35:00,
2013-09-15 11:45:00,79.1,56.5,29.63,ENE,62,0.0,0.0,46,0.00,,,0.00,Wunderground v.1.15,2013-09-15 18:45:00,
2013-09-15 11:55:00,80.2,56.9,29.62,ENE,63,0.0,1.0,45,0.00,,,0.00,Wunderground v.1.15,2013-09-15 18:55:00,
2013-09-15 12:05:00,81.0,57.0,29.63,ESE,103,1.0,1.0,44,0.00,,,0.00,Wunderground v.1.15,2013-09-15 19:05:00,
2013-09-15 12:15:00,81.5,57.5,29.63,ENE,74,0.0,2.0,44,0.00,,,0.00,Wunderground v.1.15,2013-09-15 19:15:00,
2013-09-15 12:25:00,82.6,57.8,29.62,NE,55,1.0,1.0,43,0.00,,,0.00,Wunderground v.1.15,2013-09-15 19:25:00,
2013-09-15 12:35:00,83.2,58.4,29.62,NNW,345,1.0,1.0,43,0.00,,,0.00,Wunderground v.1.15,2013-09-15 19:35:00,
2013-09-15 12:44:00,83.8,58.3,29.62,NNW,342,0.0,0.0,42,0.00,,,0.00,Wunderground v.1.15,2013-09-15 19:44:00,
2013-09-15 12:54:00,83.4,57.2,29.61,East,96,2.0,2.0,41,0.00,,,0.00,Wunderground v.1.15,2013-09-15 19:54:00,
2013-09-15 12:59:00,83.2,57.7,29.61,ENE,61,2.0,2.0,42,0.00,,,0.00,Wunderground v.1.15,2013-09-15 19:59:00,
2013-09-15 13:05:00,83.3,57.8,29.61,WSW,251,2.0,2.0,42,0.00,,,0.00,Wunderground v.1.15,2013-09-15 20:05:00,
2013-09-15 13:14:00,83.4,57.9,29.61,ENE,78,1.0,1.0,42,0.00,,,0.00,Wunderground v.1.15,2013-09-15 20:14:00,
2013-09-15 13:19:00,83.4,57.9,29.61,East,92,2.0,5.0,42,0.00,,,0.00,Wunderground v.1.15,2013-09-15 20:19:00,
2013-09-15 13:29:00,83.3,57.8,29.61,SSE,157,2.0,2.0,42,0.00,,,0.00,Wunderground v.1.15,2013-09-15 20:29:00,
2013-09-15 13:39:00,83.4,57.9,29.61,East,88,2.0,4.0,42,0.00,,,0.00,Wunderground v.1.15,2013-09-15 20:39:00,
2013-09-15 13:49:00,83.2,57.7,29.60,ENE,61,2.0,3.0,42,0.00,,,0.00,Wunderground v.1.15,2013-09-15 20:49:00,
2013-09-15 13:59:00,83.3,57.8,29.60,SE,134,1.0,3.0,42,0.00,,,0.00,Wunderground v.1.15,2013-09-15 20:59:00,
2013-09-15 14:04:00,83.2,57.7,29.60,ENE,70,1.0,2.0,42,0.00,,,0.00,Wunderground v.1.15,2013-09-15 21:04:00,
2013-09-15 14:14:00,82.8,58.0,29.60,NE,50,2.0,2.0,43,0.00,,,0.00,Wunderground v.1.15,2013-09-15 21:14:00,
2013-09-15 14:24:00,82.8,58.0,29.60,SW,228,1.0,1.0,43,0.00,,,0.00,Wunderground v.1.15,2013-09-15 21:24:00,
2013-09-15 14:34:00,82.3,57.6,29.59,NE,43,2.0,2.0,43,0.00,,,0.00,Wunderground v.1.15,2013-09-15 21:34:00,
2013-09-15 14:44:00,81.9,57.8,29.59,SSE,162,1.0,2.0,44,0.00,,,0.00,Wunderground v.1.15,2013-09-15 21:44:00,
2013-09-15 14:54:00,81.5,57.5,29.58,NE,50,1.0,2.0,44,0.00,,,0.00,Wunderground v.1.15,2013-09-15 21:54:00,
2013-09-15 15:04:00,81.2,57.8,29.58,SE,128,2.0,2.0,45,0.00,,,0.00,Wunderground v.1.15,2013-09-15 22:04:00,
2013-09-15 15:14:00,80.8,58.1,29.58,East,92,1.0,1.0,46,0.00,,,0.00,Wunderground v.1.15,2013-09-15 22:14:00,
2013-09-15 15:24:00,80.6,57.9,29.58,ENE,73,0.0,2.0,46,0.00,,,0.00,Wunderground v.1.15,2013-09-15 22:24:00,
2013-09-15 15:29:00,80.5,57.8,29.58,ENE,69,0.0,2.0,46,0.00,,,0.00,Wunderground v.1.15,2013-09-15 22:29:00,
2013-09-15 15:39:00,80.4,57.7,29.58,NNE,22,0.0,1.0,46,0.00,,,0.00,Wunderground v.1.15,2013-09-15 22:39:00,
2013-09-15 15:49:00,80.2,56.9,29.58,NE,40,0.0,0.0,45,0.00,,,0.00,Wunderground v.1.15,2013-09-15 22:49:00,
2013-09-15 15:54:00,80.1,56.8,29.58,ESE,109,0.0,0.0,45,0.00,,,0.00,Wunderground v.1.15,2013-09-15 22:54:00,
2013-09-15 16:04:00,79.9,57.3,29.57,ESE,108,0.0,0.0,46,0.00,,,0.00,Wunderground v.1.15,2013-09-15 23:04:00,
2013-09-15 16:14:00,79.7,57.1,29.57,NW,321,0.0,0.0,46,0.00,,,0.00,Wunderground v.1.15,2013-09-15 23:14:00,
2013-09-15 16:24:00,79.5,56.9,29.57,NNE,22,0.0,0.0,46,0.00,,,0.00,Wunderground v.1.15,2013-09-15 23:24:00,
2013-09-15 16:34:00,79.3,56.7,29.57,NE,55,0.0,0.0,46,0.00,,,0.00,Wunderground v.1.15,2013-09-15 23:34:00,
2013-09-15 16:44:00,79.1,56.5,29.57,NNE,28,0.0,0.0,46,0.00,,,0.00,Wunderground v.1.15,2013-09-15 23:44:00,
2013-09-15 16:54:00,78.7,56.8,29.57,West,265,0.0,0.0,47,0.00,,,0.00,Wunderground v.1.15,2013-09-15 23:54:00,
2013-09-15 17:04:00,78.5,56.6,29.57,SE,132,0.0,0.0,47,0.00,,,0.00,Wunderground v.1.15,2013-09-16 00:04:00,
2013-09-15 17:13:00,78.2,56.9,29.57,WNW,288,0.0,0.0,48,0.00,,,0.00,Wunderground v.1.15,2013-09-16 00:13:00,
2013-09-15 17:19:00,78.0,56.1,29.57,ESE,111,0.0,1.0,47,0.00,,,0.00,Wunderground v.1.15,2013-09-16 00:19:00,
2013-09-15 17:25:00,77.8,56.5,29.57,East,86,0.0,0.0,48,0.00,,,0.00,Wunderground v.1.15,2013-09-16 00:25:00,
2013-09-15 17:35:00,77.3,56.1,29.57,SE,133,0.0,0.0,48,0.00,,,0.00,Wunderground v.1.15,2013-09-16 00:35:00,
2013-09-15 17:45:00,76.9,56.3,29.58,SE,134,0.0,0.0,49,0.00,,,0.00,Wunderground v.1.15,2013-09-16 00:45:00,
2013-09-15 17:55:00,76.6,56.6,29.58,SE,134,0.0,0.0,50,0.00,,,0.00,Wunderground v.1.15,2013-09-16 00:55:00,
2013-09-15 18:05:00,76.2,56.2,29.58,ESE,113,0.0,0.0,50,0.00,,,0.00,Wunderground v.1.15,2013-09-16 01:05:00,
2013-09-15 18:15:00,75.8,56.4,29.58,ESE,113,0.0,0.0,51,0.00,,,0.00,Wunderground v.1.15,2013-09-16 01:15:00,
2013-09-15 18:24:00,75.3,56.5,29.58,NE,52,0.0,0.0,52,0.00,,,0.00,Wunderground v.1.15,2013-09-16 01:24:00,
2013-09-15 18:35:00,74.8,56.5,29.58,East,83,0.0,0.0,53,0.00,,,0.00,Wunderground v.1.15,2013-09-16 01:35:00,
2013-09-15 18:44:00,74.3,56.1,29.59,NE,54,0.0,2.0,53,0.00,,,0.00,Wunderground v.1.15,2013-09-16 01:44:00,
2013-09-15 18:55:00,73.7,56.0,29.59,East,87,0.0,0.0,54,0.00,,,0.00,Wunderground v.1.15,2013-09-16 01:55:00,
2013-09-15 19:05:00,73.2,56.1,29.59,SSE,153,0.0,0.0,55,0.00,,,0.00,Wunderground v.1.15,2013-09-16 02:05:00,
2013-09-15 19:14:00,72.7,55.6,29.59,SSE,153,0.0,0.0,55,0.00,,,0.00,Wunderground v.1.15,2013-09-16 02:14:00,
2013-09-15 19:24:00,72.3,55.7,29.60,SSE,153,0.0,0.0,56,0.00,,,0.00,Wunderground v.1.15,2013-09-16 02:24:00,
2013-09-15 19:34:00,71.7,55.7,29.60,SSE,153,0.0,0.0,57,0.00,,,0.00,Wunderground v.1.15,2013-09-16 02:34:00,
2013-09-15 19:39:00,71.3,55.3,29.60,SSE,153,0.0,0.0,57,0.00,,,0.00,Wunderground v.1.15,2013-09-16 02:39:00,
2013-09-15 19:49:00,70.8,55.3,29.60,SSE,153,0.0,0.0,58,0.00,,,0.00,Wunderground v.1.15,2013-09-16 02:49:00,
2013-09-15 19:59:00,70.3,55.3,29.60,SSE,153,0.0,0.0,59,0.00,,,0.00,Wunderground v.1.15,2013-09-16 02:59:00,
2013-09-15 20:04:00,70.0,55.0,29.60,SSE,153,0.0,0.0,59,0.00,,,0.00,Wunderground v.1.15,2013-09-16 03:04:00,
2013-09-15 20:14:00,69.5,55.0,29.60,SSE,153,0.0,0.0,60,0.00,,,0.00,Wunderground v.1.15,2013-09-16 03:14:00,
2013-09-15 20:19:00,69.3,55.3,29.61,SSE,153,0.0,0.0,61,0.00,,,0.00,Wunderground v.1.15,2013-09-16 03:19:00,
2013-09-15 20:29:00,68.8,54.8,29.61,SSE,153,0.0,0.0,61,0.00,,,0.00,Wunderground v.1.15,2013-09-16 03:29:00,
2013-09-15 20:39:00,68.3,54.8,29.61,SSE,153,0.0,0.0,62,0.00,,,0.00,Wunderground v.1.15,2013-09-16 03:39:00,
2013-09-15 20:49:00,67.9,54.8,29.62,SSE,153,0.0,0.0,63,0.00,,,0.00,Wunderground v.1.15,2013-09-16 03:49:00,
2013-09-15 20:59:00,67.5,54.9,29.62,SSE,153,0.0,0.0,64,0.00,,,0.00,Wunderground v.1.15,2013-09-16 03:59:00,
2013-09-15 21:04:00,67.3,54.7,29.62,SSE,153,0.0,0.0,64,0.00,,,0.00,Wunderground v.1.15,2013-09-16 04:04:00,
2013-09-15 21:09:00,67.1,54.5,29.62,SSE,153,0.0,0.0,64,0.00,,,0.00,Wunderground v.1.15,2013-09-16 04:09:00,
2013-09-15 21:19:00,66.7,54.6,29.63,SSE,153,0.0,0.0,65,0.00,,,0.00,Wunderground v.1.15,2013-09-16 04:19:00,
2013-09-15 21:24:00,66.5,54.4,29.63,SSE,153,0.0,0.0,65,0.00,,,0.00,Wunderground v.1.15,2013-09-16 04:24:00,
2013-09-15 21:34:00,66.2,54.5,29.63,SSE,153,0.0,0.0,66,0.00,,,0.00,Wunderground v.1.15,2013-09-16 04:34:00,
2013-09-15 21:39:00,66.1,54.8,29.63,SSE,153,0.0,0.0,67,0.00,,,0.00,Wunderground v.1.15,2013-09-16 04:39:00,
2013-09-15 21:44:00,65.9,54.6,29.63,SSE,153,0.0,0.0,67,0.00,,,0.00,Wunderground v.1.15,2013-09-16 04:44:00,
2013-09-15 21:54:00,65.5,54.7,29.63,SSE,153,0.0,0.0,68,0.00,,,0.00,Wunderground v.1.15,2013-09-16 04:54:00,
2013-09-15 22:04:00,65.2,54.4,29.63,SSE,153,0.0,0.0,68,0.00,,,0.00,Wunderground v.1.15,2013-09-16 05:04:00,
2013-09-15 22:09:00,65.0,54.6,29.63,SSE,153,0.0,0.0,69,0.00,,,0.00,Wunderground v.1.15,2013-09-16 05:09:00,
2013-09-15 22:19:00,64.7,54.7,29.63,SSE,153,0.0,0.0,70,0.00,,,0.00,Wunderground v.1.15,2013-09-16 05:19:00,
2013-09-15 22:25:00,64.5,54.9,29.63,SSE,153,0.0,0.0,71,0.00,,,0.00,Wunderground v.1.15,2013-09-16 05:25:00,
2013-09-15 22:30:00,64.4,54.8,29.63,SSE,153,0.0,0.0,71,0.00,,,0.00,Wunderground v.1.15,2013-09-16 05:30:00,
2013-09-15 22:40:00,64.2,55.0,29.63,SSE,153,0.0,0.0,72,0.00,,,0.00,Wunderground v.1.15,2013-09-16 05:40:00,
2013-09-15 22:50:00,64.1,54.9,29.63,SSE,153,0.0,0.0,72,0.00,,,0.00,Wunderground v.1.15,2013-09-16 05:50:00,
2013-09-15 23:00:00,63.9,54.7,29.63,SSE,153,0.0,0.0,72,0.00,,,0.00,Wunderground v.1.15,2013-09-16 06:00:00,
2013-09-15 23:05:00,63.7,54.5,29.64,SSE,153,0.0,0.0,72,0.00,,,0.00,Wunderground v.1.15,2013-09-16 06:05:00,
2013-09-15 23:15:00,63.4,54.2,29.64,SSE,153,0.0,0.0,72,0.00,,,0.00,Wunderground v.1.15,2013-09-16 06:15:00,
2013-09-15 23:25:00,63.0,54.2,29.63,SSE,153,0.0,0.0,73,0.00,,,0.00,Wunderground v.1.15,2013-09-16 06:25:00,
2013-09-15 23:35:00,62.6,54.2,29.64,SSE,153,0.0,0.0,74,0.00,,,0.00,Wunderground v.1.15,2013-09-16 06:35:00,
2013-09-15 23:44:00,62.2,54.2,29.64,SSE,153,0.0,0.0,75,0.00,,,0.00,Wunderground v.1.15,2013-09-16 06:44:00,
2013-09-15 23:54:00,61.8,53.8,29.64,SSE,153,0.0,0.0,75,0.00,,,0.00,Wunderground v.1.15,2013-09-16 06:54:00,